Portada
METAR-TAF:

METAR-TAF

Aeroports :

Hanoi, Vietnam

latitud: 21-01N, longitud: 105-48E, altitud: 6 m

Observació

L'informe es va fer fa 14 minuts, a les 20:30 UTC
Vent 7 kt del Est/Nord-Est
Temperatura 26°C
Humitat 89%
Pressió 1004 hPa
Visibilitat: 8000 m

METAR: VVNB 012030Z 07007KT 8000 NSC 26/24 Q1004 NOSIG

Hora: 03:44 (20:44 UTC)

Pronòstic

L'informe es va fer fa 3 hores i 44 minuts, a les 17:00 UTC
Pronòstic vàlid del 01 a les 18 UTC al 02 a les 18 UTC
Vent 6 kt del Est
Visibilitat: 9000 m
Núvols disperses a una alçada de 3000 ft
Temporalment
l' 02 a les 10 UTC al 02 a les 14 UTC
Vent 15 kt del Oest/Sud-Oest amb ràfegues de 25 kt
Visibilitat: 3000 m
Núvols disperses a una alçada de 1200 ft
Escasses núvols a una alçada de 2700 ft, Cumulonimbus.
Cel ennuvolat a una alçada de 4000 ft
tempesta, pluja

TAF: VVNB 011700Z 0118/0218 10006KT 9000 SCT030 TEMPO 0210/0214 24015G25KT 3000 +TSRA SCT012 FEW027CB BKN040

Observacions i pronòstics meteorològics de més de 4000 aeroports (METAR i TAF).

Les estacions disponibles són els punts grocs i vermells al mapa.

Posi el ratolí al punt desitjat per veure el nom de l'estació.

Feu clic per veure les observacions i els pronòstics meteorològics.

Per canviar el mapa: feu clic els botons verds amb una creu de color negre per apropar; al botó verd amb un guió per allunyar la imatge; o en les fletxes verdes per a mapes adjacents.


METAR-TAF: